Time;durP1;ratioP1;P1;durP2;ratioP2;P2;SDS_P1;SDS_P2;PMS_P1;PMS_P2;Temp;Humidity;BMP_temperature;BMP_pressure;BME280_temperature;BME280_humidity;BME280_pressure;Samples;Min_cycle;Max_cycle;Signal;HPM_P1;HPM_P2
2021/01/02 00:02:12;;;;;;;;;;;2.00;99.90;;;;;;5012579;28;19937;-75
2021/01/02 00:04:47;;;;;;;;;;;2.00;99.90;;;;;;5012580;28;19936;-76
2021/01/02 00:07:24;;;;;;;;;;;2.00;99.90;;;;;;5012960;28;19926;-75
2021/01/02 00:09:54;;;;;;;;;;;2.00;99.90;;;;;;5012367;28;19930;-75
2021/01/02 00:12:31;;;;;;;;;;;2.00;99.90;;;;;;5012769;28;19929;-75
2021/01/02 00:15:03;;;;;;;;;;;1.90;99.90;;;;;;5023275;28;19925;-74
2021/01/02 00:17:44;;;;;;;;;;;2.00;99.90;;;;;;5032499;28;19925;-75
2021/01/02 00:20:17;;;;;;;;;;;2.00;99.90;;;;;;5032137;28;19925;-75
2021/01/02 00:22:47;;;;;;;;;;;2.00;99.90;;;;;;5032300;28;19925;-75
2021/01/02 00:25:14;;;;;;;;;;;2.00;99.90;;;;;;5032066;28;20409;-75
2021/01/02 00:27:54;;;;;;;;;;;1.90;99.90;;;;;;5032086;28;19929;-74
2021/01/02 00:30:32;;;;;;;;;;;2.00;99.90;;;;;;5031463;28;19945;-76
2021/01/02 00:33:09;;;;;;;;;;;2.00;99.90;;;;;;5032001;28;19925;-76
2021/01/02 00:35:37;;;;;;;;;;;2.00;99.90;;;;;;5032126;28;19928;-75
2021/01/02 00:38:03;;;;;;;;;;;2.00;99.90;;;;;;5032036;28;19925;-75
2021/01/02 00:40:30;;;;;;;;;;;2.00;99.90;;;;;;5031734;28;19933;-75
2021/01/02 00:42:57;;;;;;;;;;;2.00;99.90;;;;;;5031839;28;19925;-76
2021/01/02 00:45:23;;;;;;;;;;;2.00;99.90;;;;;;5013640;28;19925;-75
2021/01/02 00:47:50;;;;;;;;;;;2.00;99.90;;;;;;5012204;28;19932;-75
2021/01/02 00:50:18;;;;;;;;;;;2.00;99.90;;;;;;5029216;28;20365;-75
2021/01/02 00:53:02;;;;;;;;;;;2.00;99.90;;;;;;5031806;28;19925;-75
2021/01/02 00:55:34;;;;;;;;;;;2.00;99.90;;;;;;5031914;28;19925;-76
2021/01/02 00:58:04;;;;;;;;;;;2.00;99.90;;;;;;5031919;28;19929;-75
2021/01/02 01:00:33;;;;;;;;;;;2.00;99.90;;;;;;5031556;28;19929;-75
2021/01/02 01:03:03;;;;;;;;;;;1.90;99.90;;;;;;5021809;28;19929;-75
2021/01/02 01:05:34;;;;;;;;;;;1.90;99.90;;;;;;5012236;28;19925;-76
2021/01/02 01:08:00;;;;;;;;;;;1.80;99.90;;;;;;5014760;28;19980;-76
2021/01/02 01:10:26;;;;;;;;;;;1.80;99.90;;;;;;5015593;28;20037;-76
2021/01/02 01:13:04;;;;;;;;;;;1.80;99.90;;;;;;5015702;28;19973;-75
2021/01/02 01:15:30;;;;;;;;;;;1.70;99.90;;;;;;5015747;28;19930;-75
2021/01/02 01:18:04;;;;;;;;;;;1.80;99.90;;;;;;5035246;28;19975;-76
2021/01/02 01:20:30;;;;;;;;;;;1.70;99.90;;;;;;5034836;28;19933;-76
2021/01/02 01:23:07;;;;;;;;;;;1.70;99.90;;;;;;5035184;28;19932;-75
2021/01/02 01:25:39;;;;;;;;;;;1.70;99.90;;;;;;5035114;28;19926;-76
2021/01/02 01:28:12;;;;;;;;;;;1.70;99.90;;;;;;5035093;28;20019;-76
2021/01/02 01:30:40;;;;;;;;;;;1.70;99.90;;;;;;5032008;28;19936;-75
2021/01/02 01:33:08;;;;;;;;;;;1.60;99.90;;;;;;5015201;28;19929;-75
2021/01/02 01:35:37;;;;;;;;;;;1.60;99.90;;;;;;5015253;28;19953;-75
2021/01/02 01:38:07;;;;;;;;;;;1.60;99.90;;;;;;5015096;28;20397;-75
2021/01/02 01:40:35;;;;;;;;;;;1.50;99.90;;;;;;5015046;28;19926;-76
2021/01/02 01:43:03;;;;;;;;;;;1.50;99.90;;;;;;5015416;28;19957;-76
2021/01/02 01:45:57;;;;;;;;;;;1.40;99.90;;;;;;5015314;28;19925;-76
2021/01/02 01:48:24;;;;;;;;;;;1.40;99.90;;;;;;5015042;28;19926;-76
2021/01/02 01:50:55;;;;;;;;;;;1.40;99.90;;;;;;5014708;28;19937;-76
2021/01/02 01:53:39;;;;;;;;;;;1.40;99.90;;;;;;5015046;28;19925;-75
2021/01/02 01:56:15;;;;;;;;;;;1.30;99.90;;;;;;5014733;28;19932;-75
2021/01/02 01:58:47;;;;;;;;;;;1.20;99.90;;;;;;5014784;28;19932;-75
2021/01/02 02:01:15;;;;;;;;;;;1.10;99.90;;;;;;5014387;28;19925;-75
2021/01/02 02:03:47;;;;;;;;;;;1.10;99.90;;;;;;5014624;28;19932;-74
2021/01/02 02:06:29;;;;;;;;;;;0.90;99.90;;;;;;5014933;28;19932;-75
2021/01/02 02:08:59;;;;;;;;;;;0.80;99.90;;;;;;5014414;28;19925;-75
2021/01/02 02:11:49;;;;;;;;;;;0.60;99.90;;;;;;5013911;28;20329;-76
2021/01/02 02:14:16;;;;;;;;;;;0.60;99.90;;;;;;5003680;28;20061;-76
2021/01/02 02:16:51;;;;;;;;;;;0.60;99.90;;;;;;5015657;28;19933;-75
2021/01/02 02:19:41;;;;;;;;;;;0.50;99.90;;;;;;5013979;28;19931;-75
2021/01/02 02:22:13;;;;;;;;;;;0.40;99.90;;;;;;5008156;28;19929;-74
2021/01/02 02:24:42;;;;;;;;;;;0.40;99.90;;;;;;5014855;28;19932;-75
2021/01/02 02:27:11;;;;;;;;;;;0.30;99.90;;;;;;5014177;28;20440;-75
2021/01/02 02:29:38;;;;;;;;;;;0.30;99.90;;;;;;5014265;28;19933;-76
2021/01/02 02:32:09;;;;;;;;;;;0.20;99.90;;;;;;5013865;28;20386;-76
2021/01/02 02:34:35;;;;;;;;;;;0.10;99.90;;;;;;5014360;28;20370;-76
2021/01/02 02:37:01;;;;;;;;;;;0.10;99.90;;;;;;5014285;28;19926;-76
2021/01/02 02:39:27;;;;;;;;;;;0.10;99.90;;;;;;5014240;28;19933;-76
2021/01/02 02:41:56;;;;;;;;;;;0.10;99.90;;;;;;5013805;28;19925;-76
2021/01/02 02:44:24;;;;;;;;;;;0.00;99.90;;;;;;5013792;28;20417;-75
2021/01/02 02:46:52;;;;;;;;;;;-0.10;99.90;;;;;;5013698;28;19933;-75
2021/01/02 02:49:22;;;;;;;;;;;-0.20;99.90;;;;;;5014081;28;19925;-75
2021/01/02 02:51:52;;;;;;;;;;;-0.20;99.90;;;;;;5013500;28;20323;-76
2021/01/02 02:54:19;;;;;;;;;;;-0.20;99.90;;;;;;5013836;28;19948;-75
2021/01/02 02:56:47;;;;;;;;;;;-0.20;99.90;;;;;;5013704;28;19933;-76
2021/01/02 02:59:13;;;;;;;;;;;-0.30;99.90;;;;;;5013997;28;19925;-76
2021/01/02 03:01:39;;;;;;;;;;;-0.30;99.90;;;;;;5013132;28;19926;-75
2021/01/02 03:04:05;;;;;;;;;;;-0.40;99.90;;;;;;5013599;28;19925;-76
2021/01/02 03:06:32;;;;;;;;;;;-0.40;99.90;;;;;;5013564;28;19925;-75
2021/01/02 03:08:59;;;;;;;;;;;-0.50;99.90;;;;;;5013780;28;19925;-76
2021/01/02 03:11:25;;;;;;;;;;;-0.50;99.90;;;;;;5013336;28;19976;-75
2021/01/02 03:13:51;;;;;;;;;;;-0.60;99.90;;;;;;5013350;28;19926;-75
2021/01/02 03:16:18;;;;;;;;;;;-0.50;99.90;;;;;;5013210;28;19926;-75
2021/01/02 03:18:44;;;;;;;;;;;-0.60;99.90;;;;;;5013492;28;20382;-75
2021/01/02 03:21:10;;;;;;;;;;;-0.60;99.90;;;;;;5012802;28;20398;-75
2021/01/02 03:23:47;;;;;;;;;;;-0.60;99.90;;;;;;5013391;28;19932;-75
2021/01/02 03:26:13;;;;;;;;;;;-0.60;99.90;;;;;;5013189;28;20287;-75
2021/01/02 03:28:40;;;;;;;;;;;-0.70;99.90;;;;;;5012994;28;19925;-76
2021/01/02 03:31:06;;;;;;;;;;;-0.80;99.90;;;;;;5012107;28;19932;-74
2021/01/02 03:33:34;;;;;;;;;;;-0.80;99.90;;;;;;5019369;28;19925;-76
2021/01/02 03:36:01;;;;;;;;;;;-0.70;99.90;;;;;;5032969;28;19929;-74
2021/01/02 03:38:30;;;;;;;;;;;-0.80;99.90;;;;;;5020436;28;19933;-76
2021/01/02 03:40:57;;;;;;;;;;;-0.80;99.90;;;;;;5012569;28;20361;-76
2021/01/02 03:43:24;;;;;;;;;;;-0.90;99.90;;;;;;5012847;28;19956;-76
2021/01/02 03:45:50;;;;;;;;;;;-0.90;99.90;;;;;;5012983;28;20023;-76
2021/01/02 03:48:16;;;;;;;;;;;-0.90;99.90;;;;;;5019087;28;19925;-76
2021/01/02 03:50:42;;;;;;;;;;;-1.00;99.90;;;;;;5032515;28;19925;-76
2021/01/02 03:53:08;;;;;;;;;;;-1.00;99.90;;;;;;5032472;28;19929;-76
2021/01/02 03:55:34;;;;;;;;;;;-1.00;99.90;;;;;;5032173;28;19925;-76
2021/01/02 03:58:01;;;;;;;;;;;-1.00;99.90;;;;;;5032344;28;19936;-76
2021/01/02 04:00:27;;;;;;;;;;;-1.10;99.90;;;;;;5032228;28;19925;-74
2021/01/02 04:02:53;;;;;;;;;;;-1.10;99.90;;;;;;5032317;28;19926;-74
2021/01/02 04:05:19;;;;;;;;;;;-1.20;99.90;;;;;;5031956;28;19965;-74
2021/01/02 04:07:45;;;;;;;;;;;-1.20;99.90;;;;;;5032376;28;19932;-74
2021/01/02 04:10:12;;;;;;;;;;;-1.20;99.90;;;;;;5031788;28;19932;-74
2021/01/02 04:12:38;;;;;;;;;;;-1.30;99.90;;;;;;5032418;28;19979;-75
2021/01/02 04:15:06;;;;;;;;;;;-1.30;99.90;;;;;;5032274;28;19932;-75
2021/01/02 04:17:32;;;;;;;;;;;-1.30;99.90;;;;;;5032348;28;19971;-75
2021/01/02 04:19:58;;;;;;;;;;;-1.30;99.90;;;;;;5032199;28;19925;-75
2021/01/02 04:22:24;;;;;;;;;;;-1.30;99.90;;;;;;5032068;28;19925;-75
2021/01/02 04:24:50;;;;;;;;;;;-1.20;99.90;;;;;;5014972;28;19979;-75
2021/01/02 04:27:16;;;;;;;;;;;-1.20;99.90;;;;;;5012714;28;19925;-75
2021/01/02 04:29:42;;;;;;;;;;;-1.20;99.90;;;;;;5012548;28;20378;-75
2021/01/02 04:32:08;;;;;;;;;;;-1.20;99.90;;;;;;5012201;28;19925;-75
2021/01/02 04:34:34;;;;;;;;;;;-1.10;99.90;;;;;;5012398;28;20405;-75
2021/01/02 04:37:00;;;;;;;;;;;-1.00;99.90;;;;;;5012366;28;19929;-75
2021/01/02 04:39:26;;;;;;;;;;;-0.90;99.90;;;;;;5012484;28;19926;-75
2021/01/02 04:41:55;;;;;;;;;;;-0.90;99.90;;;;;;5013307;28;20274;-75
2021/01/02 04:44:21;;;;;;;;;;;-0.80;99.90;;;;;;5016174;28;19936;-75
2021/01/02 04:46:48;;;;;;;;;;;-0.70;99.90;;;;;;5022809;28;19925;-74
2021/01/02 04:49:14;;;;;;;;;;;-0.60;99.90;;;;;;5035765;28;19932;-74
2021/01/02 04:51:40;;;;;;;;;;;-0.60;99.90;;;;;;5035545;28;19936;-75
2021/01/02 04:54:07;;;;;;;;;;;-0.50;99.90;;;;;;5025931;28;19929;-75
2021/01/02 04:56:33;;;;;;;;;;;-0.50;99.90;;;;;;5015941;28;19930;-76
2021/01/02 04:59:01;;;;;;;;;;;-0.40;99.90;;;;;;5016251;28;19980;-75
2021/01/02 05:01:28;;;;;;;;;;;-0.30;99.90;;;;;;5015450;28;19925;-76
2021/01/02 05:03:54;;;;;;;;;;;-0.30;99.90;;;;;;5015646;28;19925;-76
2021/01/02 05:06:21;;;;;;;;;;;-0.20;99.90;;;;;;5015716;28;19976;-74
2021/01/02 05:08:47;;;;;;;;;;;-0.20;99.90;;;;;;5015601;28;20390;-75
2021/01/02 05:11:13;;;;;;;;;;;-0.10;99.90;;;;;;5015372;28;19926;-75
2021/01/02 05:13:39;;;;;;;;;;;-0.10;99.90;;;;;;5015752;28;19933;-75
2021/01/02 05:16:16;;;;;;;;;;;0.00;99.90;;;;;;5015649;28;20409;-75
2021/01/02 05:18:51;;;;;;;;;;;0.00;99.90;;;;;;5015575;28;20258;-74
2021/01/02 05:21:17;;;;;;;;;;;0.00;99.90;;;;;;5014976;28;19925;-74
2021/01/02 05:24:01;;;;;;;;;;;0.00;99.90;;;;;;5015289;28;19926;-74
2021/01/02 05:26:27;;;;;;;;;;;0.10;99.90;;;;;;5017045;28;19933;-74
2021/01/02 05:29:07;;;;;;;;;;;0.10;99.90;;;;;;5035446;28;19925;-74
2021/01/02 05:31:33;;;;;;;;;;;0.10;99.90;;;;;;5035145;28;19932;-75
2021/01/02 05:34:03;;;;;;;;;;;0.10;99.90;;;;;;5035715;28;19925;-74
2021/01/02 05:36:28;;;;;;;;;;;0.10;99.90;;;;;;5034973;28;20400;-74
2021/01/02 05:38:55;;;;;;;;;;;0.20;99.90;;;;;;5035038;28;19925;-74
2021/01/02 05:41:21;;;;;;;;;;;0.30;99.90;;;;;;5031444;28;19925;-74
2021/01/02 05:43:47;;;;;;;;;;;0.30;99.90;;;;;;5014774;28;19925;-74
2021/01/02 05:46:14;;;;;;;;;;;0.30;99.90;;;;;;5014961;28;19926;-74
2021/01/02 05:48:40;;;;;;;;;;;0.20;99.90;;;;;;5015289;28;19926;-74
2021/01/02 05:51:06;;;;;;;;;;;0.20;99.90;;;;;;5014648;28;19933;-74
2021/01/02 05:53:34;;;;;;;;;;;0.30;99.90;;;;;;5014055;28;19925;-74
2021/01/02 05:56:02;;;;;;;;;;;0.20;99.90;;;;;;5014764;28;19933;-74
2021/01/02 05:58:28;;;;;;;;;;;0.20;99.90;;;;;;5014771;28;19926;-75
2021/01/02 06:01:10;;;;;;;;;;;0.20;99.90;;;;;;5014364;28;20469;-75
2021/01/02 06:03:37;;;;;;;;;;;0.10;99.90;;;;;;5014738;28;19926;-74
2021/01/02 06:06:04;;;;;;;;;;;0.10;99.90;;;;;;5014634;28;19925;-74
2021/01/02 06:08:30;;;;;;;;;;;0.10;99.90;;;;;;5014675;28;19933;-74
2021/01/02 06:10:59;;;;;;;;;;;0.00;99.90;;;;;;5013656;28;20436;-74
2021/01/02 06:13:27;;;;;;;;;;;0.00;99.90;;;;;;5014324;28;19925;-74
2021/01/02 06:15:56;;;;;;;;;;;0.00;99.90;;;;;;5014656;28;19925;-75
2021/01/02 06:18:22;;;;;;;;;;;0.00;99.90;;;;;;5033062;28;19925;-75
2021/01/02 06:20:48;;;;;;;;;;;0.00;99.90;;;;;;5033944;28;19925;-74
2021/01/02 06:23:17;;;;;;;;;;;0.00;99.90;;;;;;5034090;28;19932;-74
2021/01/02 06:25:43;;;;;;;;;;;0.00;99.90;;;;;;5034033;28;19979;-75
2021/01/02 06:28:09;;;;;;;;;;;0.00;99.90;;;;;;5034335;28;19929;-75
2021/01/02 06:30:36;;;;;;;;;;;0.00;99.90;;;;;;5034335;28;19925;-75
2021/01/02 06:33:02;;;;;;;;;;;0.00;99.90;;;;;;5034097;28;19983;-75
2021/01/02 06:35:28;;;;;;;;;;;0.00;99.90;;;;;;5034133;28;19925;-74
2021/01/02 06:38:08;;;;;;;;;;;0.10;99.90;;;;;;5033796;28;19925;-75
2021/01/02 06:40:37;;;;;;;;;;;0.10;99.90;;;;;;5033772;28;19925;-75
2021/01/02 06:43:04;;;;;;;;;;;0.00;99.90;;;;;;5033964;28;19925;-75
2021/01/02 06:45:44;;;;;;;;;;;0.00;99.90;;;;;;5033818;28;19936;-75
2021/01/02 06:48:29;;;;;;;;;;;-0.10;99.90;;;;;;5033885;28;19929;-75
2021/01/02 06:50:55;;;;;;;;;;;-0.10;99.90;;;;;;5032823;28;19929;-76
2021/01/02 06:53:22;;;;;;;;;;;-0.20;99.90;;;;;;5033378;28;19932;-75
2021/01/02 06:55:56;;;;;;;;;;;-0.30;99.90;;;;;;5033400;28;19929;-76
2021/01/02 06:58:22;;;;;;;;;;;-0.30;99.90;;;;;;5033523;28;19925;-76
2021/01/02 07:00:49;;;;;;;;;;;-0.40;99.90;;;;;;5033023;28;20567;-76
2021/01/02 07:03:30;;;;;;;;;;;-0.40;99.90;;;;;;5033197;28;19932;-76
2021/01/02 07:05:56;;;;;;;;;;;-0.40;99.90;;;;;;5032504;28;19929;-76
2021/01/02 07:08:41;;;;;;;;;;;-0.50;99.90;;;;;;5033328;28;19925;-76
2021/01/02 07:11:26;;;;;;;;;;;-0.50;99.90;;;;;;5033139;28;20019;-76
2021/01/02 07:14:06;;;;;;;;;;;-0.50;99.90;;;;;;5033317;28;19929;-76
2021/01/02 07:16:34;;;;;;;;;;;-0.50;99.90;;;;;;5032849;28;20386;-77
2021/01/02 07:19:00;;;;;;;;;;;-0.60;99.90;;;;;;5032106;28;19929;-76
2021/01/02 07:21:33;;;;;;;;;;;-0.70;99.90;;;;;;5012924;28;19979;-76
2021/01/02 07:24:14;;;;;;;;;;;-0.70;99.90;;;;;;5013824;28;19925;-76
2021/01/02 07:26:40;;;;;;;;;;;-0.80;99.90;;;;;;5032642;28;19929;-76
2021/01/02 07:29:06;;;;;;;;;;;-0.80;99.90;;;;;;5032866;28;19925;-76
2021/01/02 07:31:32;;;;;;;;;;;-0.70;99.90;;;;;;5032686;28;19925;-76
2021/01/02 07:33:59;;;;;;;;;;;-0.70;99.90;;;;;;5032669;28;20321;-76
2021/01/02 07:36:25;;;;;;;;;;;-0.70;99.90;;;;;;5032716;28;19925;-76
2021/01/02 07:38:51;;;;;;;;;;;-0.60;99.90;;;;;;5032886;28;19995;-76
2021/01/02 07:41:18;;;;;;;;;;;-0.60;99.90;;;;;;5032535;28;20469;-76
2021/01/02 07:43:44;;;;;;;;;;;-0.50;99.90;;;;;;5032705;28;19979;-75
2021/01/02 07:46:10;;;;;;;;;;;-0.40;99.90;;;;;;5032708;28;19933;-75
2021/01/02 07:48:36;;;;;;;;;;;-0.30;99.90;;;;;;5020493;28;19926;-76
2021/01/02 07:51:13;;;;;;;;;;;-0.30;99.90;;;;;;5012523;28;19971;-75
2021/01/02 07:53:39;;;;;;;;;;;-0.30;99.90;;;;;;5013089;28;20773;-75
2021/01/02 07:56:05;;;;;;;;;;;-0.20;99.90;;;;;;5012568;28;19980;-75
2021/01/02 07:58:31;;;;;;;;;;;-0.10;99.90;;;;;;5012636;28;19926;-75
2021/01/02 08:01:07;;;;;;;;;;;-0.20;99.90;;;;;;5014734;28;19941;-75
2021/01/02 08:03:34;;;;;;;;;;;-0.20;99.90;;;;;;5032182;28;19933;-76
2021/01/02 08:06:07;;;;;;;;;;;-0.10;99.90;;;;;;5032564;28;19925;-75
2021/01/02 08:08:34;;;;;;;;;;;0.00;99.90;;;;;;5032539;28;20306;-74
2021/01/02 08:11:00;;;;;;;;;;;0.10;99.90;;;;;;5032070;28;20345;-75
2021/01/02 08:13:26;;;;;;;;;;;0.20;99.90;;;;;;5032294;28;19929;-74
2021/01/02 08:15:52;;;;;;;;;;;0.20;99.90;;;;;;5031942;28;19925;-75
2021/01/02 08:18:18;;;;;;;;;;;0.30;99.90;;;;;;5035901;28;20298;-76
2021/01/02 08:20:44;;;;;;;;;;;0.40;99.90;;;;;;5036177;28;19926;-76
2021/01/02 08:23:10;;;;;;;;;;;0.60;99.90;;;;;;5036221;28;19932;-76
2021/01/02 08:25:38;;;;;;;;;;;0.70;99.90;;;;;;5036438;28;19926;-76
2021/01/02 08:28:04;;;;;;;;;;;1.00;99.90;;;;;;5036204;28;19991;-76
2021/01/02 08:30:30;;;;;;;;;;;1.00;99.90;;;;;;5020676;28;19929;-76
2021/01/02 08:32:59;;;;;;;;;;;0.90;99.90;;;;;;5016197;28;19973;-76
2021/01/02 08:35:26;;;;;;;;;;;0.80;99.90;;;;;;5017448;28;19972;-76
2021/01/02 08:37:53;;;;;;;;;;;0.80;99.90;;;;;;5016418;28;19925;-76
2021/01/02 08:40:19;;;;;;;;;;;0.90;99.90;;;;;;5016172;28;19948;-76
2021/01/02 08:42:46;;;;;;;;;;;1.00;99.90;;;;;;5015892;28;19929;-75
2021/01/02 08:45:13;;;;;;;;;;;0.80;99.90;;;;;;5016009;28;19948;-74
2021/01/02 08:47:40;;;;;;;;;;;0.70;99.90;;;;;;5015445;28;19932;-75
2021/01/02 08:50:10;;;;;;;;;;;0.50;99.90;;;;;;5015798;28;19925;-74
2021/01/02 08:52:36;;;;;;;;;;;0.40;99.90;;;;;;5015758;28;19925;-75
2021/01/02 08:55:09;;;;;;;;;;;0.30;99.90;;;;;;5015546;28;19948;-75
2021/01/02 08:57:41;;;;;;;;;;;0.40;99.90;;;;;;5015476;28;19925;-75
2021/01/02 09:00:16;;;;;;;;;;;0.40;99.90;;;;;;5014866;28;19926;-75
2021/01/02 09:02:45;;;;;;;;;;;0.40;99.90;;;;;;5015190;28;19932;-75
2021/01/02 09:05:11;;;;;;;;;;;0.60;99.90;;;;;;5026250;28;19929;-75
2021/01/02 09:07:38;;;;;;;;;;;0.80;99.90;;;;;;5034863;28;19936;-75
2021/01/02 09:10:31;;;;;;;;;;;0.60;99.90;;;;;;5034843;28;19929;-76
2021/01/02 09:13:11;;;;;;;;;;;0.60;99.90;;;;;;5025245;28;19932;-76
2021/01/02 09:15:58;;;;;;;;;;;0.70;99.90;;;;;;5035002;28;20517;-75
2021/01/02 09:18:53;;;;;;;;;;;0.90;99.90;;;;;;5028091;28;19980;-78
2021/01/02 09:21:20;;;;;;;;;;;1.10;99.90;;;;;;5014902;28;19930;-75
2021/01/02 09:23:46;;;;;;;;;;;1.30;99.90;;;;;;5014875;28;20298;-76
2021/01/02 09:26:19;;;;;;;;;;;1.40;99.90;;;;;;5014862;28;19937;-75
2021/01/02 09:28:46;;;;;;;;;;;1.70;99.90;;;;;;5013524;28;19925;-75
2021/01/02 09:31:12;;;;;;;;;;;1.80;99.90;;;;;;5014034;28;20382;-69
2021/01/02 09:33:39;;;;;;;;;;;2.00;99.90;;;;;;5014429;28;20405;-69
2021/01/02 09:36:05;;;;;;;;;;;2.00;99.90;;;;;;5014470;28;20020;-69
2021/01/02 09:38:31;;;;;;;;;;;2.20;99.90;;;;;;5014494;28;19929;-69
2021/01/02 09:40:58;;;;;;;;;;;2.40;99.90;;;;;;5014292;28;19925;-67
2021/01/02 09:43:24;;;;;;;;;;;2.60;99.90;;;;;;5014243;28;19929;-69
2021/01/02 09:45:50;;;;;;;;;;;2.80;99.90;;;;;;5018152;28;19983;-69
2021/01/02 09:48:17;;;;;;;;;;;3.20;99.90;;;;;;5033913;28;19932;-69
2021/01/02 09:50:43;;;;;;;;;;;4.10;99.90;;;;;;5017416;28;20020;-70
2021/01/02 09:53:10;;;;;;;;;;;7.30;99.90;;;;;;5014255;28;19926;-69
2021/01/02 09:55:36;;;;;;;;;;;7.90;99.90;;;;;;5014052;28;20306;-69
2021/01/02 09:58:03;;;;;;;;;;;8.80;95.50;;;;;;5014383;28;19925;-69
2021/01/02 10:00:30;;;;;;;;;;;9.20;92.60;;;;;;5014589;28;19930;-69
2021/01/02 10:02:56;;;;;;;;;;;9.10;91.70;;;;;;5014583;28;19925;-69
2021/01/02 10:05:23;;;;;;;;;;;8.70;91.20;;;;;;5014852;28;19925;-68
2021/01/02 10:07:49;;;;;;;;;;;7.90;95.20;;;;;;5028294;28;19925;-67
2021/01/02 10:10:15;;;;;;;;;;;7.40;99.30;;;;;;5033959;28;19932;-73
2021/01/02 10:12:42;;;;;;;;;;;6.70;99.90;;;;;;5034143;28;19979;-73
2021/01/02 10:15:10;;;;;;;;;;;6.50;99.90;;;;;;5034268;28;19979;-72
2021/01/02 10:17:36;;;;;;;;;;;6.70;99.90;;;;;;5034334;28;19932;-72
2021/01/02 10:20:03;;;;;;;;;;;7.10;99.90;;;;;;5033745;28;20302;-71
2021/01/02 10:22:29;;;;;;;;;;;7.30;99.90;;;;;;5020051;28;20366;-72
2021/01/02 10:24:55;;;;;;;;;;;7.40;99.90;;;;;;5014166;28;19929;-72
2021/01/02 10:27:22;;;;;;;;;;;7.30;99.90;;;;;;5015788;28;19929;-72
2021/01/02 10:29:49;;;;;;;;;;;7.20;99.90;;;;;;5014335;28;19932;-72
2021/01/02 10:32:17;;;;;;;;;;;7.20;99.90;;;;;;5014273;28;19926;-72
2021/01/02 10:34:45;;;;;;;;;;;7.00;99.90;;;;;;5014175;28;19933;-71
2021/01/02 10:37:11;;;;;;;;;;;7.00;99.90;;;;;;5028191;28;19980;-72
2021/01/02 10:39:37;;;;;;;;;;;7.00;99.90;;;;;;5032982;28;19936;-71
2021/01/02 10:42:04;;;;;;;;;;;8.00;99.90;;;;;;5033291;28;19925;-71
2021/01/02 10:44:30;;;;;;;;;;;8.90;96.00;;;;;;5033463;28;19925;-71
2021/01/02 10:46:56;;;;;;;;;;;10.20;90.80;;;;;;5033491;28;19925;-71
2021/01/02 10:49:23;;;;;;;;;;;11.30;81.90;;;;;;5033597;28;20348;-72
2021/01/02 10:51:49;;;;;;;;;;;12.30;74.50;;;;;;5033015;28;20474;-72
2021/01/02 10:54:16;;;;;;;;;;;13.50;66.90;;;;;;5033533;28;19925;-72
2021/01/02 10:56:43;;;;;;;;;;;13.80;65.30;;;;;;5033392;28;19929;-72
2021/01/02 10:59:09;;;;;;;;;;;13.90;64.10;;;;;;5033224;28;19948;-72
2021/01/02 11:01:39;;;;;;;;;;;14.70;59.00;;;;;;5033089;28;19925;-72
2021/01/02 11:04:05;;;;;;;;;;;14.80;59.40;;;;;;5033272;28;19925;-71
2021/01/02 11:06:33;;;;;;;;;;;15.30;58.00;;;;;;5032480;28;20643;-72
2021/01/02 11:08:59;;;;;;;;;;;15.40;56.80;;;;;;5033311;28;19925;-72
2021/01/02 11:11:25;;;;;;;;;;;14.80;57.80;;;;;;5032537;28;20604;-72
2021/01/02 11:13:51;;;;;;;;;;;14.60;58.10;;;;;;5033215;28;19936;-72
2021/01/02 11:16:17;;;;;;;;;;;14.20;59.00;;;;;;5033119;28;19944;-72
2021/01/02 11:18:43;;;;;;;;;;;14.20;59.30;;;;;;5032872;28;20282;-72
2021/01/02 11:21:09;;;;;;;;;;;13.90;58.70;;;;;;5032617;28;20274;-72
2021/01/02 11:23:36;;;;;;;;;;;13.90;59.50;;;;;;5032935;28;19929;-72
2021/01/02 11:26:07;;;;;;;;;;;13.60;59.90;;;;;;5032723;28;20400;-72
2021/01/02 11:28:33;;;;;;;;;;;13.60;60.40;;;;;;5032678;28;20378;-72
2021/01/02 11:30:59;;;;;;;;;;;13.60;61.10;;;;;;5032422;28;19932;-71
2021/01/02 11:33:25;;;;;;;;;;;13.90;60.10;;;;;;5032596;28;19925;-72
2021/01/02 11:35:51;;;;;;;;;;;13.00;61.40;;;;;;5032600;28;19975;-72
2021/01/02 11:38:17;;;;;;;;;;;12.20;65.10;;;;;;5032690;28;19925;-72
2021/01/02 11:40:44;;;;;;;;;;;12.40;66.10;;;;;;5032260;28;19925;-71
2021/01/02 11:43:10;;;;;;;;;;;13.20;63.90;;;;;;5032213;28;19932;-72
2021/01/02 11:45:36;;;;;;;;;;;13.80;62.10;;;;;;5032377;28;20287;-71
2021/01/02 11:48:02;;;;;;;;;;;14.30;60.70;;;;;;5032504;28;19932;-71
2021/01/02 11:50:28;;;;;;;;;;;14.80;59.20;;;;;;5032296;28;20373;-72
2021/01/02 11:52:57;;;;;;;;;;;15.00;58.80;;;;;;5031551;28;20374;-71
2021/01/02 11:55:24;;;;;;;;;;;15.10;58.00;;;;;;5032531;28;19932;-71
2021/01/02 11:57:51;;;;;;;;;;;15.00;58.20;;;;;;5032222;28;19932;-71
2021/01/02 12:00:17;;;;;;;;;;;14.80;58.60;;;;;;5032180;28;19954;-72
2021/01/02 12:02:43;;;;;;;;;;;14.70;59.10;;;;;;5032289;28;20378;-71
2021/01/02 12:05:10;;;;;;;;;;;14.90;58.40;;;;;;5032061;28;20342;-72
2021/01/02 12:07:39;;;;;;;;;;;15.10;57.70;;;;;;5032207;28;20414;-72
2021/01/02 12:10:06;;;;;;;;;;;15.20;57.40;;;;;;5032000;28;19938;-71
2021/01/02 12:12:32;;;;;;;;;;;15.10;57.50;;;;;;5031928;28;19936;-71
2021/01/02 12:14:59;;;;;;;;;;;14.40;58.40;;;;;;5032119;28;19925;-72
2021/01/02 12:17:25;;;;;;;;;;;13.10;61.80;;;;;;5032450;28;20357;-71
2021/01/02 12:19:53;;;;;;;;;;;12.70;64.50;;;;;;5031940;28;19936;-71
2021/01/02 12:22:19;;;;;;;;;;;12.20;66.00;;;;;;5032510;28;20024;-72
2021/01/02 12:24:45;;;;;;;;;;;11.60;68.50;;;;;;5032259;28;19925;-72
2021/01/02 12:27:11;;;;;;;;;;;11.30;70.10;;;;;;5032079;28;19983;-72
2021/01/02 12:29:38;;;;;;;;;;;11.70;70.80;;;;;;5032055;28;19929;-72
2021/01/02 12:32:06;;;;;;;;;;;11.20;70.50;;;;;;5031461;28;19968;-72
2021/01/02 12:34:33;;;;;;;;;;;10.90;72.50;;;;;;5031802;28;20305;-72
2021/01/02 12:37:00;;;;;;;;;;;10.90;73.20;;;;;;5032040;28;19925;-72
2021/01/02 12:39:28;;;;;;;;;;;10.40;73.90;;;;;;5032264;28;19925;-72
2021/01/02 12:41:54;;;;;;;;;;;9.60;76.40;;;;;;5031531;28;20382;-72
2021/01/02 12:44:21;;;;;;;;;;;8.70;82.20;;;;;;5031567;28;20393;-72
2021/01/02 12:46:48;;;;;;;;;;;8.30;91.50;;;;;;5031825;28;20024;-72
2021/01/02 12:49:16;;;;;;;;;;;8.10;95.10;;;;;;5031750;28;19930;-72
2021/01/02 12:51:42;;;;;;;;;;;7.40;99.90;;;;;;5031635;28;19984;-72
2021/01/02 12:54:08;;;;;;;;;;;6.80;99.90;;;;;;5031498;28;20390;-72
2021/01/02 12:56:34;;;;;;;;;;;6.10;99.90;;;;;;5031618;28;20401;-71
2021/01/02 12:59:00;;;;;;;;;;;5.60;99.90;;;;;;5031520;28;19925;-72
2021/01/02 13:01:27;;;;;;;;;;;5.10;99.90;;;;;;5031246;28;19979;-73
2021/01/02 13:03:53;;;;;;;;;;;4.80;99.90;;;;;;5034389;28;19925;-73
2021/01/02 13:06:20;;;;;;;;;;;4.80;99.90;;;;;;5035584;28;19932;-73
2021/01/02 13:08:46;;;;;;;;;;;4.90;99.90;;;;;;5035637;28;19932;-72
2021/01/02 13:11:12;;;;;;;;;;;5.00;99.90;;;;;;5035084;28;19933;-72
2021/01/02 13:13:39;;;;;;;;;;;4.90;99.90;;;;;;5035364;28;19925;-72
2021/01/02 13:16:09;;;;;;;;;;;4.90;99.90;;;;;;5035230;28;19925;-72
2021/01/02 13:18:35;;;;;;;;;;;4.90;99.90;;;;;;5035635;28;20297;-71
2021/01/02 13:21:01;;;;;;;;;;;4.70;99.90;;;;;;5034843;28;19936;-71
2021/01/02 13:23:28;;;;;;;;;;;4.60;99.90;;;;;;5035133;28;19929;-72
2021/01/02 13:25:55;;;;;;;;;;;4.30;99.90;;;;;;5035196;28;19925;-72
2021/01/02 13:28:21;;;;;;;;;;;4.30;99.90;;;;;;5035045;28;20412;-73
2021/01/02 13:30:47;;;;;;;;;;;4.30;99.90;;;;;;5034634;28;20024;-71
2021/01/02 13:33:13;;;;;;;;;;;4.00;99.90;;;;;;5034944;28;19944;-72
2021/01/02 13:35:39;;;;;;;;;;;3.80;99.90;;;;;;5035168;28;20428;-72
2021/01/02 13:38:06;;;;;;;;;;;3.80;99.90;;;;;;5034925;28;19925;-72
2021/01/02 13:40:32;;;;;;;;;;;3.70;99.90;;;;;;5034703;28;19929;-73
2021/01/02 13:42:58;;;;;;;;;;;3.50;99.90;;;;;;5034795;28;20457;-73
2021/01/02 13:45:24;;;;;;;;;;;3.40;99.90;;;;;;5034649;28;19925;-72
2021/01/02 13:47:50;;;;;;;;;;;3.40;99.90;;;;;;5034865;28;19979;-71
2021/01/02 13:50:16;;;;;;;;;;;3.30;99.90;;;;;;5034323;28;20397;-72
2021/01/02 13:52:43;;;;;;;;;;;3.20;99.90;;;;;;5034399;28;20463;-72
2021/01/02 13:55:10;;;;;;;;;;;3.10;99.90;;;;;;5034477;28;19925;-72
2021/01/02 13:57:37;;;;;;;;;;;3.10;99.90;;;;;;5034550;28;19932;-73
2021/01/02 14:00:04;;;;;;;;;;;3.10;99.90;;;;;;5034017;28;19925;-73
2021/01/02 14:02:30;;;;;;;;;;;3.20;99.90;;;;;;5034122;28;19929;-72
2021/01/02 14:04:59;;;;;;;;;;;4.10;99.90;;;;;;5034174;28;19933;-72
2021/01/02 14:07:25;;;;;;;;;;;3.00;99.90;;;;;;5034240;28;19931;-72
2021/01/02 14:09:51;;;;;;;;;;;3.00;99.90;;;;;;5033847;28;19929;-72
2021/01/02 14:12:17;;;;;;;;;;;3.00;99.90;;;;;;5033976;28;19979;-72
2021/01/02 14:14:44;;;;;;;;;;;2.70;99.90;;;;;;5033504;28;20000;-73
2021/01/02 14:17:10;;;;;;;;;;;2.50;99.90;;;;;;5034072;28;19925;-72
2021/01/02 14:19:37;;;;;;;;;;;2.30;99.90;;;;;;5034360;28;19975;-72
2021/01/02 14:22:03;;;;;;;;;;;2.20;99.90;;;;;;5033891;28;19925;-72
2021/01/02 14:24:30;;;;;;;;;;;2.10;99.90;;;;;;5033913;28;19932;-72
2021/01/02 14:26:56;;;;;;;;;;;1.80;99.90;;;;;;5034053;28;19933;-72
2021/01/02 14:29:23;;;;;;;;;;;1.80;99.90;;;;;;5034077;28;19929;-72
2021/01/02 14:31:50;;;;;;;;;;;1.80;99.90;;;;;;5033581;28;19925;-72